< < Back
Terminal Aerodrome Forecast


Current Version              Previous Versions:   1  2  3  4  5  6  7  8  9  

Terminal Aerodrome Forecast

117
FTUS42 KTAE 200500
TAFDHN
TAF
KDHN 200523Z 2006/2106 00000KT P6SM SKC
     FM201000 00000KT 5SM BR SKC
     FM201300 10003KT P6SM FEW250
     FM201800 27004KT P6SM FEW040 SCT250=

Latest METAR

872
SAUS70 KWBC 201300 RRC
MTRDHN
METAR KDHN 201253Z 03003KT 9SM CLR 12/11 A3012 RMK AO2 SLP198
T01220111


USA.gov is the U.S. government's official web portal to all federal, state and local government web resources and services.